createdAt,value
2018-12-25T00:01:59.911Z,1.33
2018-12-25T00:04:29.175Z,1.33
2018-12-25T00:06:58.269Z,0.83
2018-12-25T00:09:27.599Z,1.70
2018-12-25T00:11:57.879Z,0.77
2018-12-25T00:14:29.867Z,1.27
2018-12-25T00:16:58.919Z,1.13
2018-12-25T00:19:27.795Z,1.90
2018-12-25T00:21:56.802Z,1.63
2018-12-25T00:24:25.738Z,1.87
2018-12-25T00:26:54.628Z,2.50
2018-12-25T00:29:24.037Z,2.93
2018-12-25T00:31:53.034Z,1.40
2018-12-25T00:34:21.964Z,1.30
2018-12-25T00:36:52.749Z,1.77
2018-12-25T00:39:21.950Z,2.47
2018-12-25T00:41:51.364Z,1.50
2018-12-25T00:44:21.954Z,1.50
2018-12-25T00:46:51.037Z,1.80
2018-12-25T00:49:19.944Z,2.23
2018-12-25T00:51:50.533Z,0.87
2018-12-25T00:54:19.479Z,1.67
2018-12-25T00:56:48.372Z,2.03
2018-12-25T00:59:20.405Z,2.03
2018-12-25T01:01:49.388Z,2.10
2018-12-25T01:04:18.626Z,1.40
2018-12-25T01:06:47.855Z,1.40
2018-12-25T01:09:17.434Z,1.43
2018-12-25T01:11:46.820Z,3.73
2018-12-25T01:14:16.162Z,1.87
2018-12-25T01:16:46.965Z,1.83
2018-12-25T01:19:23.090Z,3.70
2018-12-25T01:21:46.680Z,1.57
2018-12-25T01:24:15.622Z,2.37
2018-12-25T01:26:46.638Z,1.50
2018-12-25T01:29:16.987Z,1.10
2018-12-25T01:31:46.136Z,1.23
2018-12-25T01:34:15.349Z,0.37
2018-12-25T01:36:44.259Z,1.70
2018-12-25T01:39:14.018Z,1.13
2018-12-25T01:41:43.648Z,1.23
2018-12-25T01:44:12.784Z,0.50
2018-12-25T01:46:42.051Z,1.47
2018-12-25T01:49:11.230Z,0.67
2018-12-25T01:51:43.787Z,2.23
2018-12-25T01:54:12.983Z,1.10
2018-12-25T01:56:42.145Z,0.50
2018-12-25T01:59:11.055Z,1.93
2018-12-25T02:01:39.955Z,1.33
2018-12-25T02:04:09.215Z,2.13
2018-12-25T02:06:38.328Z,1.23
2018-12-25T02:09:10.977Z,0.70
2018-12-25T02:11:39.963Z,1.03
2018-12-25T02:14:08.835Z,0.40
2018-12-25T02:16:37.976Z,2.60
2018-12-25T02:19:06.814Z,0.83
2018-12-25T02:21:35.997Z,1.30
2018-12-25T02:24:05.096Z,1.97
2018-12-25T02:26:33.990Z,4.00
2018-12-25T02:29:02.989Z,3.20
2018-12-25T02:31:31.914Z,3.27
2018-12-25T02:34:02.602Z,8.57
2018-12-25T02:36:32.344Z,12.57
2018-12-25T02:39:01.348Z,13.03
2018-12-25T02:41:30.730Z,3.70
2018-12-25T02:43:59.985Z,2.13
2018-12-25T02:46:29.237Z,5.47
2018-12-25T02:48:58.067Z,5.20
2018-12-25T02:51:27.530Z,5.20
2018-12-25T02:53:56.549Z,2.50
2018-12-25T02:56:27.887Z,11.90
2018-12-25T02:58:57.585Z,9.23
2018-12-25T03:01:27.110Z,4.03
2018-12-25T03:03:56.918Z,2.23
2018-12-25T03:06:27.991Z,1.83
2018-12-25T03:08:57.187Z,6.23
2018-12-25T03:15:07.142Z,1.83
2018-12-25T03:17:36.448Z,1.30
2018-12-25T03:20:05.961Z,1.90
2018-12-25T03:22:35.213Z,2.17
2018-12-25T03:25:04.224Z,4.17
2018-12-25T03:27:33.528Z,1.60
2018-12-25T03:30:03.428Z,1.43
2018-12-25T03:32:34.229Z,2.80
2018-12-25T03:37:37.634Z,1.77
2018-12-25T03:40:07.107Z,1.77
2018-12-25T03:42:39.535Z,2.07
2018-12-25T03:45:12.143Z,1.60
2018-12-25T03:47:41.077Z,1.20
2018-12-25T03:50:11.011Z,1.57
2018-12-25T03:52:40.190Z,2.23
2018-12-25T03:55:12.870Z,2.80
2018-12-25T03:57:44.517Z,2.67
2018-12-25T04:00:13.435Z,3.03
2018-12-25T04:02:42.527Z,0.77
2018-12-25T04:05:14.602Z,2.87
2018-12-25T04:07:45.530Z,1.73
2018-12-25T04:10:14.705Z,2.23
2018-12-25T04:12:43.617Z,0.73
2018-12-25T04:15:18.532Z,1.43
2018-12-25T04:17:48.259Z,3.60
2018-12-25T04:20:20.737Z,2.07
2018-12-25T04:22:49.588Z,1.27
2018-12-25T04:25:18.481Z,1.83
2018-12-25T04:27:47.572Z,1.43
2018-12-25T04:30:16.518Z,2.63
2018-12-25T04:32:45.454Z,1.90
2018-12-25T04:35:14.418Z,1.27
2018-12-25T04:37:43.397Z,1.43
2018-12-25T04:40:13.131Z,2.17
2018-12-25T04:42:46.234Z,2.70
2018-12-25T04:45:15.048Z,1.03
2018-12-25T04:47:44.100Z,1.87
2018-12-25T04:50:13.051Z,2.90
2018-12-25T04:52:42.043Z,3.40
2018-12-25T04:55:11.231Z,2.00
2018-12-25T04:57:40.190Z,3.10
2018-12-25T05:00:09.756Z,3.67
2018-12-25T05:02:38.876Z,0.43
2018-12-25T05:05:08.153Z,4.17
2018-12-25T05:07:49.906Z,3.13
2018-12-25T05:10:18.778Z,2.37
2018-12-25T05:12:47.852Z,0.87
2018-12-25T05:15:17.031Z,1.70
2018-12-25T05:17:45.928Z,2.37
2018-12-25T05:20:15.115Z,0.93
2018-12-25T05:22:44.368Z,2.73
2018-12-25T05:25:13.221Z,1.23
2018-12-25T05:27:42.555Z,4.97
2018-12-25T05:30:11.571Z,3.83
2018-12-25T05:32:42.230Z,4.03
2018-12-25T05:35:11.739Z,1.83
2018-12-25T05:37:43.646Z,2.00
2018-12-25T05:40:12.465Z,1.97
2018-12-25T05:42:41.647Z,2.80
2018-12-25T05:45:10.769Z,1.80
2018-12-25T05:47:42.797Z,3.07
2018-12-25T05:50:12.465Z,2.83
2018-12-25T05:52:41.682Z,4.17
2018-12-25T05:55:10.499Z,3.33
2018-12-25T05:57:39.713Z,3.43
2018-12-25T06:00:09.341Z,4.07
2018-12-25T06:02:41.876Z,4.20
2018-12-25T06:05:10.818Z,1.50
2018-12-25T06:07:39.778Z,3.00
2018-12-25T06:10:09.554Z,1.80
2018-12-25T06:12:38.474Z,2.93
2018-12-25T06:15:09.489Z,2.77
2018-12-25T06:17:39.099Z,2.97
2018-12-25T06:20:07.959Z,3.33
2018-12-25T06:22:36.937Z,2.97
2018-12-25T06:25:05.971Z,1.73
2018-12-25T06:27:36.235Z,3.17
2018-12-25T06:30:05.890Z,4.30
2018-12-25T06:32:36.237Z,5.03
2018-12-25T06:35:05.553Z,3.97
2018-12-25T06:37:34.360Z,3.53
2018-12-25T06:40:03.982Z,2.57
2018-12-25T06:42:44.853Z,2.90
2018-12-25T06:45:13.778Z,4.27
2018-12-25T06:47:43.104Z,3.93
2018-12-25T06:50:11.906Z,4.23
2018-12-25T06:52:47.821Z,1.90
2018-12-25T06:55:17.901Z,4.47
2018-12-25T06:57:50.354Z,3.40
2018-12-25T07:00:19.227Z,2.00
2018-12-25T07:02:48.119Z,3.50
2018-12-25T07:05:16.954Z,2.43
2018-12-25T07:07:46.178Z,3.70
2018-12-25T07:10:15.146Z,4.97
2018-12-25T07:12:44.449Z,4.63
2018-12-25T07:15:14.129Z,3.23
2018-12-25T07:17:43.877Z,3.70
2018-12-25T07:20:13.122Z,4.30
2018-12-25T07:22:42.054Z,4.60
2018-12-25T07:25:12.359Z,5.50
2018-12-25T07:27:41.266Z,3.47
2018-12-25T07:30:16.367Z,5.03
2018-12-25T07:32:45.523Z,4.27
2018-12-25T07:35:15.351Z,5.23
2018-12-25T07:37:47.463Z,2.77
2018-12-25T07:40:16.374Z,4.67
2018-12-25T07:42:45.669Z,3.07
2018-12-25T07:45:14.579Z,2.83
2018-12-25T07:47:44.200Z,2.83
2018-12-25T07:50:13.136Z,4.47
2018-12-25T07:53:21.233Z,3.80
2018-12-25T07:55:53.199Z,3.93
2018-12-25T07:58:22.750Z,6.93
2018-12-25T08:00:51.731Z,6.13
2018-12-25T08:03:20.996Z,4.87
2018-12-25T08:05:53.444Z,6.47
2018-12-25T08:08:22.857Z,7.77
2018-12-25T08:10:51.773Z,9.03
2018-12-25T08:13:20.985Z,5.83
2018-12-25T08:15:52.014Z,5.73
2018-12-25T08:18:20.905Z,6.97
2018-12-25T08:20:49.801Z,8.30
2018-12-25T08:23:18.988Z,5.20
2018-12-25T08:25:51.124Z,7.97
2018-12-25T08:28:20.047Z,5.93
2018-12-25T08:30:52.293Z,6.00
2018-12-25T08:33:21.189Z,6.23
2018-12-25T08:35:50.287Z,8.83
2018-12-25T08:38:19.399Z,8.23
2018-12-25T08:40:50.180Z,8.17
2018-12-25T08:43:20.589Z,8.20
2018-12-25T08:45:55.143Z,7.83
2018-12-25T08:48:24.047Z,7.60
2018-12-25T08:50:59.060Z,9.40
2018-12-25T08:53:28.365Z,7.37
2018-12-25T08:55:58.286Z,8.30
2018-12-25T08:58:28.360Z,10.00
2018-12-25T09:00:58.054Z,8.07
2018-12-25T09:03:30.890Z,9.70
2018-12-25T09:06:02.426Z,9.07
2018-12-25T09:08:34.947Z,7.80
2018-12-25T09:11:02.116Z,6.77
2018-12-25T09:13:31.041Z,6.97
2018-12-25T09:16:02.022Z,7.20
2018-12-25T09:18:34.311Z,9.23
2018-12-25T09:21:03.610Z,9.13
2018-12-25T09:23:33.010Z,7.63
2018-12-25T09:26:03.171Z,7.37
2018-12-25T09:28:32.438Z,7.70
2018-12-25T09:31:01.696Z,7.17
2018-12-25T09:33:30.957Z,9.23
2018-12-25T09:35:59.928Z,9.50
2018-12-25T09:38:29.854Z,8.67
2018-12-25T09:41:02.185Z,8.93
2018-12-25T09:43:31.276Z,9.53
2018-12-25T09:46:00.249Z,10.83
2018-12-25T09:48:29.168Z,11.40
2018-12-25T09:50:58.081Z,10.00
2018-12-25T09:53:27.292Z,11.97
2018-12-25T09:55:56.899Z,11.73
2018-12-25T09:58:28.676Z,13.23
2018-12-25T10:01:01.060Z,14.50
2018-12-25T10:03:33.803Z,13.33
2018-12-25T10:06:03.079Z,16.47
2018-12-25T10:08:32.038Z,15.43
2018-12-25T10:11:01.161Z,16.73
2018-12-25T10:13:32.971Z,16.47
2018-12-25T10:16:02.050Z,15.07
2018-12-25T10:18:43.019Z,16.13
2018-12-25T10:21:12.078Z,16.63
2018-12-25T10:23:41.305Z,18.30
2018-12-25T10:26:12.548Z,16.63
2018-12-25T10:28:41.805Z,17.47
2018-12-25T10:31:12.588Z,17.03
2018-12-25T10:33:42.261Z,15.57
2018-12-25T10:36:11.415Z,15.10
2018-12-25T10:38:40.666Z,14.57
2018-12-25T10:41:10.120Z,15.50
2018-12-25T10:43:38.967Z,16.97
2018-12-25T10:46:08.209Z,21.27
2018-12-25T10:48:40.479Z,16.87
2018-12-25T10:51:09.474Z,18.80
2018-12-25T10:53:40.367Z,15.93
2018-12-25T10:56:10.493Z,14.97
2018-12-25T10:58:39.537Z,15.87
2018-12-25T11:01:14.191Z,18.23
2018-12-25T11:03:44.329Z,17.17
2018-12-25T11:06:13.615Z,17.40
2018-12-25T11:08:44.935Z,20.43
2018-12-25T11:11:17.085Z,16.90
2018-12-25T11:13:46.379Z,19.23
2018-12-25T11:16:18.539Z,16.70
2018-12-25T11:18:49.144Z,18.47
2018-12-25T11:21:18.531Z,17.37
2018-12-25T11:23:47.491Z,16.83
2018-12-25T11:26:16.415Z,19.30
2018-12-25T11:28:47.571Z,15.53
2018-12-25T11:31:16.939Z,17.60
2018-12-25T11:33:47.425Z,22.50
2018-12-25T11:36:16.790Z,16.93
2018-12-25T11:38:46.861Z,14.73
2018-12-25T11:41:16.743Z,14.83
2018-12-25T11:43:46.951Z,16.77
2018-12-25T11:46:16.033Z,14.57
2018-12-25T11:48:48.403Z,12.60
2018-12-25T11:51:17.721Z,14.03
2018-12-25T11:53:47.772Z,12.20
2018-12-25T11:56:16.819Z,14.57
2018-12-25T11:58:46.541Z,12.63
2018-12-25T12:01:15.771Z,12.00
2018-12-25T12:03:44.752Z,11.67
2018-12-25T12:06:14.070Z,10.83
2018-12-25T12:08:42.920Z,10.03
2018-12-25T12:11:12.268Z,15.27
2018-12-25T12:13:41.584Z,13.47
2018-12-25T12:16:11.330Z,14.50
2018-12-25T12:18:41.624Z,12.67
2018-12-25T12:21:13.906Z,11.67
2018-12-25T12:23:42.826Z,12.10
2018-12-25T12:28:47.519Z,10.00
2018-12-25T12:31:16.393Z,9.50
2018-12-25T12:33:46.427Z,9.10
2018-12-25T12:36:17.372Z,8.37
2018-12-25T12:41:21.525Z,10.17
2018-12-25T12:43:53.753Z,10.77
2018-12-25T12:46:22.976Z,9.83
2018-12-25T12:48:53.903Z,9.17
2018-12-25T12:51:35.484Z,9.43
2018-12-25T12:54:04.559Z,11.70
2018-12-25T12:56:36.979Z,9.23
2018-12-25T12:59:06.582Z,10.60
2018-12-25T13:01:36.701Z,9.93
2018-12-25T13:04:05.622Z,9.83
2018-12-25T13:06:37.783Z,10.50
2018-12-25T13:09:08.457Z,10.43
2018-12-25T13:11:37.621Z,9.10
2018-12-25T13:14:06.575Z,8.50
2018-12-25T13:16:35.624Z,14.67
2018-12-25T13:19:05.063Z,11.23
2018-12-25T13:21:34.010Z,7.90
2018-12-25T13:24:03.806Z,9.93
2018-12-25T13:30:33.633Z,12.87
2018-12-25T13:33:35.708Z,8.63
2018-12-25T13:36:05.341Z,11.37
2018-12-25T13:38:35.172Z,9.53
2018-12-25T13:41:05.032Z,8.73
2018-12-25T13:43:33.961Z,8.73
2018-12-25T13:46:02.936Z,11.17
2018-12-25T13:48:32.585Z,10.73
2018-12-25T13:51:03.651Z,9.03
2018-12-25T13:53:32.937Z,7.33
2018-12-25T13:56:02.187Z,11.43
2018-12-25T13:58:31.114Z,9.90
2018-12-25T14:01:00.028Z,8.80
2018-12-25T14:03:28.898Z,7.37
2018-12-25T14:06:00.930Z,8.03
2018-12-25T14:08:30.001Z,7.17
2018-12-25T14:10:59.155Z,7.53
2018-12-25T14:13:28.130Z,9.67
2018-12-25T14:15:57.759Z,8.57
2018-12-25T14:18:27.096Z,7.50
2018-12-25T14:20:56.021Z,7.53
2018-12-25T14:23:25.741Z,7.27
2018-12-25T14:25:56.134Z,7.53
2018-12-25T14:28:26.871Z,9.00
2018-12-25T14:31:01.934Z,7.37
2018-12-25T14:33:33.295Z,7.80
2018-12-25T14:36:02.295Z,7.73
2018-12-25T14:38:31.725Z,7.93
2018-12-25T14:41:00.860Z,8.77
2018-12-25T14:43:29.909Z,8.47
2018-12-25T14:45:58.994Z,9.07
2018-12-25T14:48:28.020Z,7.67
2018-12-25T14:51:00.092Z,8.20
2018-12-25T14:53:29.398Z,8.90
2018-12-25T14:55:58.369Z,9.10
2018-12-25T14:58:28.490Z,14.20
2018-12-25T15:00:57.482Z,11.67
2018-12-25T15:03:27.255Z,8.93
2018-12-25T15:05:56.613Z,11.17
2018-12-25T15:08:25.549Z,12.27
2018-12-25T15:10:54.895Z,11.60
2018-12-25T15:13:24.162Z,12.70
2018-12-25T15:15:53.730Z,12.00
2018-12-25T15:18:24.838Z,11.20
2018-12-25T15:20:54.294Z,10.47
2018-12-25T15:23:28.182Z,15.70
2018-12-25T15:25:54.389Z,14.67
2018-12-25T15:28:25.691Z,12.43
2018-12-25T15:30:55.324Z,14.00
2018-12-25T15:33:27.417Z,13.93
2018-12-25T15:35:56.569Z,15.37
2018-12-25T15:38:26.122Z,18.83
2018-12-25T15:40:55.672Z,14.73
2018-12-25T15:43:24.657Z,17.13
2018-12-25T15:45:53.579Z,17.70
2018-12-25T15:48:22.911Z,16.20
2018-12-25T15:50:51.810Z,16.43
2018-12-25T15:53:21.091Z,18.97
2018-12-25T15:55:50.646Z,16.70
2018-12-25T15:58:21.791Z,16.67
2018-12-25T16:00:54.827Z,15.80
2018-12-25T16:03:23.667Z,18.63
2018-12-25T16:05:59.468Z,20.53
2018-12-25T16:08:28.329Z,16.13
2018-12-25T16:10:57.560Z,18.53
2018-12-25T16:13:28.285Z,22.67
2018-12-25T16:15:57.322Z,19.37
2018-12-25T16:18:29.814Z,18.57
2018-12-25T16:20:58.839Z,20.53
2018-12-25T16:23:31.102Z,18.20
2018-12-25T16:26:04.595Z,21.17
2018-12-25T16:28:34.523Z,21.10
2018-12-25T16:31:03.859Z,19.57
2018-12-25T16:33:33.510Z,17.30
2018-12-25T16:36:02.862Z,21.53
2018-12-25T16:38:32.776Z,19.03
2018-12-25T16:41:01.646Z,18.93
2018-12-25T16:43:30.695Z,21.30
2018-12-25T16:46:00.181Z,22.47
2018-12-25T16:48:29.466Z,22.33
2018-12-25T16:51:02.105Z,20.03
2018-12-25T16:53:33.349Z,20.47
2018-12-25T16:56:01.750Z,22.17
2018-12-25T16:58:34.042Z,21.67
2018-12-25T17:01:09.159Z,21.83
2018-12-25T17:03:38.813Z,20.53
2018-12-25T17:06:11.077Z,20.83
2018-12-25T17:08:40.136Z,18.37
2018-12-25T17:11:12.053Z,19.73
2018-12-25T17:13:40.975Z,19.57
2018-12-25T17:16:10.007Z,20.43
2018-12-25T17:18:38.878Z,21.67
2018-12-25T17:21:11.325Z,22.00
2018-12-25T17:23:40.254Z,22.30
2018-12-25T17:26:11.559Z,20.63
2018-12-25T17:28:40.535Z,18.00
2018-12-25T17:31:11.764Z,22.27
2018-12-25T17:33:46.972Z,21.97
2018-12-25T17:36:15.946Z,21.17
2018-12-25T17:38:44.906Z,19.63
2018-12-25T17:41:15.190Z,21.20
2018-12-25T17:43:44.533Z,23.93
2018-12-25T17:46:13.986Z,22.20
2018-12-25T17:48:44.585Z,24.90
2018-12-25T17:51:13.527Z,22.93
2018-12-25T17:53:42.809Z,25.33
2018-12-25T17:56:11.831Z,25.73
2018-12-25T17:58:42.361Z,21.73
2018-12-25T18:01:11.384Z,22.10
2018-12-25T18:03:42.914Z,23.23
2018-12-25T18:06:12.647Z,24.13
2018-12-25T18:08:41.520Z,19.87
2018-12-25T18:11:13.913Z,20.83
2018-12-25T18:13:43.703Z,24.73
2018-12-25T18:16:12.675Z,24.60
2018-12-25T18:18:41.563Z,26.43
2018-12-25T18:21:16.802Z,24.83
2018-12-25T18:23:45.852Z,25.13
2018-12-25T18:26:15.052Z,25.27
2018-12-25T18:28:44.207Z,23.80
2018-12-25T18:31:13.381Z,25.90
2018-12-25T18:33:42.345Z,26.10
2018-12-25T18:36:15.205Z,25.40
2018-12-25T18:38:44.555Z,24.00
2018-12-25T18:41:16.958Z,24.37
2018-12-25T18:43:45.987Z,24.43
2018-12-25T18:46:14.932Z,24.80
2018-12-25T18:48:47.888Z,24.10
2018-12-25T18:51:16.884Z,25.13
2018-12-25T18:53:49.102Z,25.30
2018-12-25T18:56:20.481Z,24.33
2018-12-25T18:58:52.723Z,24.10
2018-12-25T19:01:23.729Z,25.67
2018-12-25T19:03:55.857Z,24.33
2018-12-25T19:06:26.154Z,24.47
2018-12-25T19:09:20.801Z,23.20
2018-12-25T19:11:49.822Z,24.83
2018-12-25T19:14:18.768Z,29.60
2018-12-25T19:16:48.846Z,26.23
2018-12-25T19:19:17.795Z,24.43
2018-12-25T19:21:50.711Z,24.13
2018-12-25T19:24:20.258Z,22.57
2018-12-25T19:26:50.358Z,23.77
2018-12-25T19:29:21.798Z,25.67
2018-12-25T19:31:51.086Z,25.60
2018-12-25T19:34:20.021Z,26.53
2018-12-25T19:36:48.951Z,22.13
2018-12-25T19:39:21.096Z,24.53
2018-12-25T19:41:50.095Z,23.70
2018-12-25T19:44:19.860Z,24.73
2018-12-25T19:46:51.134Z,22.37
2018-12-25T19:49:20.385Z,23.27
2018-12-25T19:51:50.780Z,22.77
2018-12-25T19:54:23.396Z,22.10
2018-12-25T19:56:52.468Z,21.53
2018-12-25T19:59:23.034Z,21.03
2018-12-25T20:01:52.245Z,21.57
2018-12-25T20:04:45.354Z,23.33
2018-12-25T20:08:07.462Z,22.63
2018-12-25T20:11:20.345Z,25.80
2018-12-25T20:14:33.046Z,22.93
2018-12-25T20:17:40.400Z,24.47
2018-12-25T20:21:04.962Z,21.80
2018-12-25T20:24:00.244Z,23.50
2018-12-25T20:27:34.201Z,22.77
2018-12-25T20:30:43.087Z,21.40
2018-12-25T20:34:04.531Z,23.23
2018-12-25T20:37:15.242Z,25.33
2018-12-25T20:40:14.367Z,21.30
2018-12-25T20:43:24.107Z,23.00
2018-12-25T20:46:46.774Z,19.73
2018-12-25T20:49:58.488Z,20.20
2018-12-25T20:53:26.965Z,21.03
2018-12-25T20:56:58.500Z,20.53
2018-12-25T21:00:07.642Z,22.53
2018-12-25T21:03:29.849Z,20.23
2018-12-25T21:06:32.990Z,21.00
2018-12-25T21:09:25.787Z,20.67
2018-12-25T21:12:46.756Z,20.60
2018-12-25T21:15:39.138Z,20.77
2018-12-25T21:18:41.408Z,19.00
2018-12-25T21:21:47.904Z,22.33
2018-12-25T21:24:52.700Z,19.50
2018-12-25T21:27:29.640Z,23.93
2018-12-25T21:30:04.976Z,19.97
2018-12-25T21:32:37.005Z,20.30
2018-12-25T21:35:17.815Z,20.53
2018-12-25T21:37:47.307Z,20.10
2018-12-25T21:40:17.713Z,21.57
2018-12-25T21:42:48.687Z,21.53
2018-12-25T21:45:18.630Z,21.50
2018-12-25T21:47:48.177Z,16.90
2018-12-25T21:50:20.442Z,19.60
2018-12-25T21:52:49.749Z,21.40
2018-12-25T21:55:19.173Z,18.83
2018-12-25T21:57:48.853Z,20.77
2018-12-25T22:00:20.156Z,18.90
2018-12-25T22:02:49.801Z,22.83
2018-12-25T22:05:19.176Z,19.93
2018-12-25T22:07:48.185Z,19.47
2018-12-25T22:10:17.535Z,22.03
2018-12-25T22:12:47.280Z,19.40
2018-12-25T22:15:16.543Z,22.13
2018-12-25T22:17:45.962Z,21.27
2018-12-25T22:20:25.369Z,20.60
2018-12-25T22:22:55.174Z,21.90
2018-12-25T22:25:27.268Z,21.50
2018-12-25T22:27:54.662Z,21.50
2018-12-25T22:30:23.906Z,21.37
2018-12-25T22:32:53.273Z,24.03
2018-12-25T22:35:22.948Z,23.37
2018-12-25T22:37:52.654Z,19.90
2018-12-25T22:40:32.082Z,20.40
2018-12-25T22:43:00.996Z,20.00
2018-12-25T22:45:31.442Z,19.13
2018-12-25T22:48:09.325Z,20.77
2018-12-25T22:50:38.992Z,20.10
2018-12-25T22:53:11.124Z,18.07
2018-12-25T22:55:41.024Z,18.30
2018-12-25T22:58:10.872Z,19.33
2018-12-25T23:00:40.398Z,22.87
2018-12-25T23:03:09.619Z,19.57
2018-12-25T23:05:38.495Z,19.93
2018-12-25T23:08:10.612Z,20.10
2018-12-25T23:10:39.711Z,16.27
2018-12-25T23:13:18.297Z,18.93
2018-12-25T23:15:47.546Z,21.77
2018-12-25T23:18:16.555Z,20.13
2018-12-25T23:21:16.072Z,21.27
2018-12-25T23:23:46.751Z,20.57
2018-12-25T23:26:16.371Z,19.73
2018-12-25T23:28:45.407Z,21.43
2018-12-25T23:31:14.678Z,19.20
2018-12-25T23:33:44.066Z,18.80
2018-12-25T23:36:14.319Z,19.77
2018-12-25T23:38:43.442Z,23.87
2018-12-25T23:41:12.592Z,21.50
2018-12-25T23:43:41.571Z,18.57
2018-12-25T23:46:10.503Z,18.37
2018-12-25T23:48:39.596Z,19.40
2018-12-25T23:51:08.779Z,20.20
2018-12-25T23:53:37.703Z,22.83
2018-12-25T23:56:06.594Z,23.13
2018-12-25T23:58:36.006Z,18.43
